NACIONALNO OTVORENO PRVENSTVO HRVATSKE U KARTINGU
1. NAGRADA REPSOL-A '10
Virovitica, 19.-20.06.2010.

KLASA 0
Poz. S.b. Vozač Klub Nac. Krug Vrijeme Zaostatak Bod.
1. 4 Dorian Vargović Cobra Virovitica HR 6 6:05,853 0:00,000 -
2. 11 Erik Trstenjak AKK Podravina Koprivnica HR 6 6:15,595 0:09,742 -
3. 7 Tin Vorkapić KK Koprivnica HR 6 6:16,025 0:10,172 -
4. 10 Luka Tomašić KK Koprivnica HR 6 6:23,984 0:18,131 -
5. 8 Filip Vuković Cobra Virovitica HR 6 6:29,316 0:23,463 -
6. 9 Jan Tisaj KK Koprivnica HR 6 6:31,416 0:25,563 -
 
KLASA I - 1. UTRKA
Poz. S.b. Vozač Klub Nac. Krug Vrijeme Zaostatak Bod.
1. 102 Muhammad Pličanić AK Info Kart HR 13 10:29,759 0:00,000 20
2. 112 Matija Kovačić KK 1 Zagreb HR 13 10:35,233 0:05,474 15
3. 106 Mihael Meretaj Cobra Virovitica HR 13 10:50,870 0:21,111 12
4. 111 Jan Pokos AK Speedy HR 12 11:09,850 1 krug 10
 
KLASA I - 2. UTRKA
Poz. S.b. Vozač Klub Nac. Krug Vrijeme Zaostatak Bod.
1. 102 Muhammad Pličanić AK Info Kart HR 13 10:24,904 0:00,000 20
2. 112 Matija Kovačić KK 1 Zagreb HR 13 10:38,521 0:13,617 15
3. 111 Jan Pokos AK Speedy HR 13 10:41,279 0:16,375 12
4. 106 Mihael Meretaj Cobra Virovitica HR 13 10:55,468 0:30,564 10
 
KLASA II - 1. UTRKA
Poz. S.b. Vozač Klub Nac. Krug Vrijeme Zaostatak Bod.
1. 206 Damian Sekulić Cobra Virovitica HR 13 9:56,870 0:00,000 20
2. 201 Juraj Kovačić KK 1 Zagreb HR 13 10:01,509 0:04,639 15
3. 207 Fran Tisaj KK Koprivnica HR 13 10:14,814 0:17,944 12
4. 210 Luka Mavrin KK 1 Zagreb HR 13 10:18,656 0:21,786 10
5. 209 Željko Romić Cobra Virovitica HR 13 10:29,868 0:32,998 8
 
KLASA II - 2. UTRKA
Poz. S.b. Vozač Klub Nac. Krug Vrijeme Zaostatak Bod.
1. 201 Juraj Kovačić KK 1 Zagreb HR 13 9:53,802 0:00,000 20
2. 206 Damian Sekulić Cobra Virovitica HR 13 9:53,923 0:00,121 15
3. 207 Fran Tisaj KK Koprivnica HR 13 10:08,283 0:14,481 12
4. 210 Luka Mavrin KK 1 Zagreb HR 13 10:17,212 0:23,410 10
5. 209 Željko Romić Cobra Virovitica HR 13 10:31,992 0:38,190 8
 
KLASA V - 1. UTRKA
Poz. S.b. Vozač Klub Nac. Krug Vrijeme Zaostatak Bod.
1. 515 Nikola Belohradski AKK Zanatlija HR 15 10:17,297 0:00,000 20
2. 501 Karlo Golub KK 1 Zagreb HR 15 10:17,538 0:00,241 15
3. 502 Sven Gorup AKK Zanatlija HR 15 10:21,373 0:04,076 12
4. 510 Tomislav Pavlić KK 1 Zagreb HR 15 10:25,273 0:07,976 10
 
KLASA V - 2. UTRKA
Poz. S.b. Vozač Klub Nac. Krug Vrijeme Zaostatak Bod.
1. 515 Nikola Belohradski AKK Zanatlija HR 15 10:07,662 0:00,000 20
2. 501 Karlo Golub KK 1 Zagreb HR 15 10:08,731 0:01,069 15
3. 502 Sven Gorup AKK Zanatlija HR 15 10:14,576 0:06,914 12
4. 510 Tomislav Pavlić KK 1 Zagreb HR 15 10:17,088 0:09,426 10
 
KLASA VII - 1. UTRKA
* - vozač je kažnjen oduzimanjem 5 bodova
Poz. S.b. Vozač Klub Nac. Krug Vrijeme Zaostatak Bod.
1. 720* Nedjeljko Vucelić KK 1 Zagreb HR 19 12:52,644 0:00,000 15*
2. 703 Žarko Martinjak KK Koprivnica HR 19 12:53,870 0:01,226 15
3. 708 Siniša Mišić Cobra Virovitica HR 18 13:11,869 1 krug 12
4. 705 Zlatko Banić SAK Split HR 16 11:48,309 3 kruga 10
- 706 Marko Sitarić Cobra Virovitica HR 10 isključen -
 
KLASA VII - 2. UTRKA
Poz. S.b. Vozač Klub Nac. Krug Vrijeme Zaostatak Bod.
1. 720 Nedjeljko Vucelić KK 1 Zagreb HR 19 12:47,892 0:00,000 20
2. 703 Žarko Martinjak KK Koprivnica HR 19 12:51,154 0:03,262 15
3. 706 Marko Sitarić Cobra Virovitica HR 18 12:50,254 1 krug 12
4. 708 Siniša Mišić Cobra Virovitica HR 18 13:08,350 1 krug 10
- 705 Zlatko Banić SAK Split HR 0 nije startao -
 
KLASA VIII - 1. UTRKA
Poz. S.b. Vozač Klub Nac. Krug Vrijeme Zaostatak Bod.
1. 801 Samir Smailagić AK Info Kart HR 15 11:13,967 0:00,000 20
2. 809 Ivan Žovan KK 1 Zagreb HR 15 11:15,912 0:01,945 15
3. 802 Ivijan Rajnović Cobra Virovitica HR 15 11:19,288 0:05,321 12
4. 804 Tomislav Lovrenc AKK Podravina Koprivnica HR 15 11:27,790 0:13,823 10
5. 810 Nikola Carević KK 1 Zagreb HR 15 11:34,112 0:20,145 8
 
KLASA VIII - 2. UTRKA
Poz. S.b. Vozač Klub Nac. Krug Vrijeme Zaostatak Bod.
1. 801 Samir Smailagić AK Info Kart HR 15 11:09,865 0:00,000 20
2. 809 Ivan Žovan KK 1 Zagreb HR 15 11:13,357 0:03,492 15
3. 802 Ivijan Rajnović Cobra Virovitica HR 15 11:20,334 0:10,469 12
4. 810 Nikola Carević KK 1 Zagreb HR 15 11:23,448 0:13,583 10
5. 804 Tomislav Lovrenc AKK Podravina Koprivnica HR 15 11:23,695 0:13,830 8
 
PRVENSTVO HRVATSKE